Time;durP1;ratioP1;P1;durP2;ratioP2;P2;SDS_P1;SDS_P2;PMS_P1;PMS_P2;Temp;Humidity;BMP_temperature;BMP_pressure;BME280_temperature;BME280_humidity;BME280_pressure;Samples;Min_cycle;Max_cycle;Signal;HPM_P1;HPM_P2
2021/10/04 00:01:05;;;;;;;9.05;6.45;;;;;;;7.86;72.29;101521.86;1735122;81;20963;-76
2021/10/04 00:03:32;;;;;;;9.15;6.20;;;;;;;7.82;72.39;101516.84;1739256;81;21010;-77
2021/10/04 00:05:58;;;;;;;8.25;5.95;;;;;;;7.78;72.46;101517.91;1742277;81;22175;-77
2021/10/04 00:08:25;;;;;;;10.25;6.22;;;;;;;7.72;72.54;101511.16;1759223;80;21102;-77
2021/10/04 00:10:52;;;;;;;8.28;6.70;;;;;;;7.64;72.65;101508.08;1763004;81;20992;-75
2021/10/04 00:13:20;;;;;;;8.98;6.65;;;;;;;7.61;72.77;101509.52;1742980;81;21094;-77
2021/10/04 00:15:47;;;;;;;9.38;6.28;;;;;;;7.56;72.86;101515.02;1742466;81;20992;-78
2021/10/04 00:18:13;;;;;;;8.05;6.33;;;;;;;7.51;72.99;101516.16;1741326;81;22262;-75
2021/10/04 00:20:41;;;;;;;11.68;6.25;;;;;;;7.46;73.11;101511.98;1734787;82;21003;-77
2021/10/04 00:23:08;;;;;;;11.48;6.40;;;;;;;7.41;73.20;101511.34;1736134;81;20959;-77
2021/10/04 00:25:34;;;;;;;9.45;5.90;;;;;;;7.38;73.31;101512.81;1759034;81;21099;-77
2021/10/04 00:28:01;;;;;;;8.93;6.33;;;;;;;7.36;73.42;101513.81;1750293;81;21465;-78
2021/10/04 00:30:29;;;;;;;8.50;6.10;;;;;;;7.31;73.58;101517.11;1764917;81;22823;-76
2021/10/04 00:32:57;;;;;;;10.95;6.72;;;;;;;7.26;73.76;101509.92;1765219;81;21502;-77
2021/10/04 00:35:25;;;;;;;10.45;6.97;;;;;;;7.23;73.92;101514.84;1762904;81;21445;-77
2021/10/04 00:37:52;;;;;;;9.35;6.62;;;;;;;7.23;74.07;101512.67;1743932;81;21026;-76
2021/10/04 00:40:26;;;;;;;9.10;6.67;;;;;;;7.23;74.13;101504.80;1735009;81;21079;-76
2021/10/04 00:42:52;;;;;;;6.83;6.12;;;;;;;7.20;74.10;101504.48;1735375;81;21732;-76
2021/10/04 00:45:19;;;;;;;8.25;6.42;;;;;;;7.17;74.14;101505.48;1750609;81;20931;-75
2021/10/04 00:47:45;;;;;;;8.70;6.78;;;;;;;7.16;74.21;101505.56;1765374;79;20940;-76
2021/10/04 00:50:12;;;;;;;10.70;6.97;;;;;;;7.15;74.25;101504.72;1765441;80;21014;-77
2021/10/04 00:52:38;;;;;;;8.40;6.22;;;;;;;7.16;74.25;101505.10;1765427;79;20952;-76
2021/10/04 00:55:06;;;;;;;7.50;6.60;;;;;;;7.16;74.25;101501.16;1749136;81;21783;-77
2021/10/04 00:57:35;;;;;;;8.63;6.40;;;;;;;7.14;74.19;101496.88;1743002;81;21032;-77
2021/10/04 01:00:05;;;;;;;9.15;6.75;;;;;;;7.13;74.15;101501.28;1735047;81;21030;-76
2021/10/04 01:02:32;;;;;;;10.28;6.67;;;;;;;7.10;74.13;101497.50;1736200;81;21405;-74
2021/10/04 01:04:58;;;;;;;9.33;6.87;;;;;;;7.06;74.20;101501.67;1749492;81;21008;-74
2021/10/04 01:07:24;;;;;;;9.30;6.60;;;;;;;7.01;74.24;101496.61;1746210;81;22185;-74
2021/10/04 01:09:51;;;;;;;9.28;6.78;;;;;;;6.97;74.29;101506.88;1736283;81;21074;-74
2021/10/04 01:12:19;;;;;;;10.23;7.00;;;;;;;6.95;74.37;101502.60;1736307;81;21451;-75
2021/10/04 01:14:45;;;;;;;11.88;6.87;;;;;;;6.90;74.45;101501.52;1740345;81;21445;-75
2021/10/04 01:17:12;;;;;;;10.95;6.87;;;;;;;6.87;74.53;101501.20;1752391;81;21386;-75
2021/10/04 01:19:40;;;;;;;12.25;7.28;;;;;;;6.89;74.59;101494.56;1741842;81;22174;-77
2021/10/04 01:22:08;;;;;;;10.35;7.08;;;;;;;6.90;74.61;101494.95;1735774;81;20939;-76
2021/10/04 01:24:35;;;;;;;8.88;6.47;;;;;;;6.88;74.58;101493.72;1735064;81;21410;-76
2021/10/04 01:27:03;;;;;;;9.80;7.12;;;;;;;6.83;74.61;101494.37;1745680;81;21040;-75
2021/10/04 01:29:30;;;;;;;8.75;6.95;;;;;;;6.76;74.69;101500.84;1735049;81;21046;-75
2021/10/04 01:31:57;;;;;;;10.65;6.95;;;;;;;6.74;74.72;101500.50;1735404;81;21800;-75
2021/10/04 01:34:23;;;;;;;9.15;7.08;;;;;;;6.71;74.68;101502.81;1734805;82;20999;-75
2021/10/04 01:36:49;;;;;;;10.35;7.65;;;;;;;6.71;74.64;101505.44;1741270;81;21038;-76
2021/10/04 01:39:17;;;;;;;12.03;7.92;;;;;;;6.65;74.65;101508.80;1762546;81;20956;-76
2021/10/04 01:41:43;;;;;;;12.25;7.78;;;;;;;6.62;74.63;101505.00;1758377;81;21455;-76
2021/10/04 01:44:11;;;;;;;11.05;7.97;;;;;;;6.62;74.63;101503.23;1742259;79;22434;-76
2021/10/04 01:46:37;;;;;;;9.70;7.95;;;;;;;6.63;74.56;101504.93;1735256;81;20932;-74
2021/10/04 01:49:03;;;;;;;11.10;8.43;;;;;;;6.65;74.54;101507.48;1736613;81;21015;-76
2021/10/04 01:51:30;;;;;;;9.78;7.65;;;;;;;6.62;74.65;101509.79;1735306;81;21070;-74
2021/10/04 01:53:56;;;;;;;9.08;7.85;;;;;;;6.60;74.64;101509.87;1735713;81;20951;-74
2021/10/04 01:56:22;;;;;;;12.07;8.03;;;;;;;6.62;74.62;101505.00;1746671;81;22152;-76
2021/10/04 01:58:49;;;;;;;9.20;7.22;;;;;;;6.62;74.50;101495.36;1747887;81;21022;-76
2021/10/04 02:01:15;;;;;;;9.58;7.40;;;;;;;6.60;74.58;101502.45;1735203;81;21482;-76
2021/10/04 02:03:42;;;;;;;10.72;8.08;;;;;;;6.57;74.63;101499.97;1744459;81;21398;-75
2021/10/04 02:06:08;;;;;;;11.93;7.78;;;;;;;6.57;74.73;101502.60;1747450;81;21511;-77
2021/10/04 02:08:36;;;;;;;10.90;7.72;;;;;;;6.60;74.82;101502.45;1737058;81;22644;-76
2021/10/04 02:11:02;;;;;;;15.88;7.60;;;;;;;6.61;74.88;101494.97;1736007;81;20995;-76
2021/10/04 02:13:29;;;;;;;9.28;7.30;;;;;;;6.61;74.88;101510.72;1735165;81;21024;-76
2021/10/04 02:15:56;;;;;;;10.63;7.60;;;;;;;6.59;74.92;101509.94;1759954;81;20980;-75
2021/10/04 02:18:22;;;;;;;10.55;7.80;;;;;;;6.54;75.04;101510.12;1741571;81;21005;-75
2021/10/04 02:20:49;;;;;;;8.95;7.70;;;;;;;6.51;75.09;101515.98;1734907;81;21838;-76
2021/10/04 02:23:16;;;;;;;8.95;7.83;;;;;;;6.47;75.11;101516.59;1734751;81;21473;-75
2021/10/04 02:25:48;;;;;;;9.85;7.80;;;;;;;6.46;75.10;101513.55;1739348;81;21066;-76
2021/10/04 02:28:16;;;;;;;9.33;7.62;;;;;;;6.46;75.14;101516.17;1751463;81;21272;-77
2021/10/04 02:30:42;;;;;;;9.48;7.60;;;;;;;6.44;75.23;101527.66;1743089;81;21016;-76
2021/10/04 02:33:09;;;;;;;9.08;7.78;;;;;;;6.39;75.28;101520.47;1734845;82;21835;-76
2021/10/04 02:35:36;;;;;;;9.33;7.58;;;;;;;6.35;75.39;101521.05;1742830;81;20976;-75
2021/10/04 02:38:03;;;;;;;11.08;7.78;;;;;;;6.32;75.54;101526.44;1764807;81;20983;-76
2021/10/04 02:40:29;;;;;;;9.30;7.80;;;;;;;6.32;75.66;101522.50;1765307;81;20972;-75
2021/10/04 02:42:56;;;;;;;14.15;9.03;;;;;;;6.34;75.71;101530.30;1743752;81;21450;-75
2021/10/04 02:45:23;;;;;;;11.60;8.73;;;;;;;6.30;75.75;101528.28;1754629;81;22809;-77
2021/10/04 02:47:51;;;;;;;11.60;9.23;;;;;;;6.29;75.81;101535.30;1749361;81;20936;-75
2021/10/04 02:50:20;;;;;;;11.45;9.50;;;;;;;6.28;75.86;101536.22;1735149;82;20947;-75
2021/10/04 02:52:47;;;;;;;12.37;9.48;;;;;;;6.27;75.87;101531.89;1739119;81;21051;-75
2021/10/04 02:55:13;;;;;;;12.28;9.15;;;;;;;6.28;75.92;101535.37;1736515;81;20996;-76
2021/10/04 02:57:40;;;;;;;12.37;8.93;;;;;;;6.27;75.96;101536.26;1753496;81;21809;-76
2021/10/04 03:00:09;;;;;;;12.53;9.00;;;;;;;6.27;75.99;101539.77;1711213;81;20980;-76
2021/10/04 03:02:35;;;;;;;13.32;9.70;;;;;;;6.27;76.03;101538.88;1735143;81;20959;-76
2021/10/04 03:05:03;;;;;;;14.93;9.98;;;;;;;6.30;76.06;101541.40;1742313;81;21477;-76
2021/10/04 03:07:29;;;;;;;11.83;9.23;;;;;;;6.33;76.13;101546.97;1744078;81;20959;-75
2021/10/04 03:09:56;;;;;;;11.80;9.45;;;;;;;6.36;76.18;101549.45;1773877;80;22182;-76
2021/10/04 03:12:22;;;;;;;17.17;9.33;;;;;;;6.35;76.18;101545.97;1760598;80;21024;-75
2021/10/04 03:14:48;;;;;;;11.18;8.93;;;;;;;6.36;76.23;101546.82;1758722;81;21471;-75
2021/10/04 03:17:15;;;;;;;10.40;9.05;;;;;;;6.35;76.29;101551.22;1768196;80;20980;-76
2021/10/04 03:19:41;;;;;;;12.15;8.83;;;;;;;6.36;76.34;101548.13;1760078;80;21482;-76
2021/10/04 03:22:08;;;;;;;14.03;9.10;;;;;;;6.38;76.31;101546.32;1764487;80;22352;-76
2021/10/04 03:24:34;;;;;;;12.28;8.78;;;;;;;6.39;76.35;101548.02;1777550;80;20968;-75
2021/10/04 03:27:01;;;;;;;10.98;9.30;;;;;;;6.39;76.38;101551.96;1789688;80;21032;-76
2021/10/04 03:29:27;;;;;;;12.90;9.65;;;;;;;6.36;76.46;101556.86;1789145;80;20953;-75
2021/10/04 03:31:53;;;;;;;15.63;10.35;;;;;;;6.35;76.46;101550.37;1789846;80;20996;-75
2021/10/04 03:34:20;;;;;;;16.52;10.53;;;;;;;6.35;76.46;101556.92;1774401;80;22187;-76
2021/10/04 03:36:46;;;;;;;14.07;10.70;;;;;;;6.35;76.46;101561.72;1755477;81;20959;-75
2021/10/04 03:39:13;;;;;;;12.93;10.15;;;;;;;6.35;76.44;101574.84;1765586;80;21403;-75
2021/10/04 03:41:40;;;;;;;10.70;9.30;;;;;;;6.35;76.42;101572.21;1781667;80;21075;-75
2021/10/04 03:44:07;;;;;;;12.53;9.45;;;;;;;6.36;76.48;101567.35;1771925;80;20960;-76
2021/10/04 03:46:34;;;;;;;11.80;9.60;;;;;;;6.37;76.45;101579.58;1773681;80;21861;-76
2021/10/04 03:49:01;;;;;;;13.05;9.75;;;;;;;6.36;76.44;101584.41;1788936;80;21470;-77
2021/10/04 03:51:28;;;;;;;11.60;8.95;;;;;;;6.36;76.40;101569.13;1778086;80;20957;-75
2021/10/04 03:53:54;;;;;;;12.30;9.75;;;;;;;6.39;76.39;101569.02;1764354;80;21044;-75
2021/10/04 03:56:21;;;;;;;13.22;9.25;;;;;;;6.35;76.31;101576.61;1766231;80;21011;-76
2021/10/04 03:58:47;;;;;;;11.80;9.43;;;;;;;6.30;76.27;101582.92;1742856;80;22173;-76
2021/10/04 04:01:14;;;;;;;11.97;9.18;;;;;;;6.28;76.23;101584.77;1762929;80;21434;-76
2021/10/04 04:03:40;;;;;;;10.23;8.50;;;;;;;6.27;76.19;101583.06;1776670;80;21056;-75
2021/10/04 04:06:08;;;;;;;10.30;8.88;;;;;;;6.26;76.13;101583.95;1782566;79;21017;-72
2021/10/04 04:08:35;;;;;;;12.40;8.95;;;;;;;6.24;76.12;101596.74;1779626;80;21030;-73
2021/10/04 04:11:03;;;;;;;10.40;8.90;;;;;;;6.22;76.10;101597.27;1751507;81;21530;-74
2021/10/04 04:13:30;;;;;;;10.48;9.05;;;;;;;6.22;76.03;101588.09;1736793;81;20974;-74
2021/10/04 04:15:57;;;;;;;13.70;9.45;;;;;;;6.20;75.94;101590.78;1734787;81;20940;-74
2021/10/04 04:18:24;;;;;;;15.70;9.58;;;;;;;6.19;75.89;101594.78;1736603;81;20948;-74
2021/10/04 04:20:50;;;;;;;11.12;8.65;;;;;;;6.18;75.82;101602.27;1724407;81;21532;-75
2021/10/04 04:23:16;;;;;;;13.62;8.70;;;;;;;6.18;75.73;101600.50;1753097;81;22259;-74
2021/10/04 04:25:43;;;;;;;11.93;9.50;;;;;;;6.16;75.72;101600.99;1752958;81;20994;-73
2021/10/04 04:28:09;;;;;;;11.22;8.78;;;;;;;6.15;75.66;101595.81;1765293;79;20936;-73
2021/10/04 04:30:36;;;;;;;12.37;9.13;;;;;;;6.13;75.66;101602.90;1735520;81;20963;-73
2021/10/04 04:33:02;;;;;;;13.40;9.40;;;;;;;6.08;75.62;101602.22;1758905;81;20954;-74
2021/10/04 04:35:29;;;;;;;14.75;10.23;;;;;;;6.04;75.59;101609.37;1761595;81;21824;-74
2021/10/04 04:37:55;;;;;;;13.55;9.63;;;;;;;6.02;75.54;101604.19;1755558;80;21394;-76
2021/10/04 04:40:21;;;;;;;14.38;10.05;;;;;;;6.02;75.50;101600.72;1752844;81;21510;-71
2021/10/04 04:42:48;;;;;;;14.70;10.05;;;;;;;6.00;75.46;101604.72;1747907;81;21020;-74
2021/10/04 04:45:18;;;;;;;18.50;10.08;;;;;;;5.98;75.46;101607.88;1751181;81;20983;-72
2021/10/04 04:47:46;;;;;;;18.05;10.53;;;;;;;5.97;75.46;101601.35;1737379;81;22252;-73
2021/10/04 04:50:13;;;;;;;13.93;9.38;;;;;;;5.98;75.46;101603.05;1741043;81;20991;-72
2021/10/04 04:52:40;;;;;;;14.00;9.53;;;;;;;5.99;75.47;101604.79;1743318;81;20992;-73
2021/10/04 04:55:07;;;;;;;20.25;10.40;;;;;;;6.01;75.48;101603.80;1764698;81;21378;-72
2021/10/04 04:57:33;;;;;;;17.17;10.05;;;;;;;6.04;75.51;101602.81;1765160;81;21561;-74
2021/10/04 05:00:00;;;;;;;13.35;9.90;;;;;;;6.06;75.52;101606.68;1750567;81;22181;-73
2021/10/04 05:02:35;;;;;;;14.78;11.33;;;;;;;6.06;75.62;101606.22;1734929;82;20987;-73
2021/10/04 05:04:58;;;;;;;14.68;11.28;;;;;;;6.07;75.70;101609.70;1748037;80;20991;-73
2021/10/04 05:07:25;;;;;;;14.07;11.30;;;;;;;6.09;75.78;101606.13;1752394;81;20951;-73
2021/10/04 05:09:51;;;;;;;16.52;11.70;;;;;;;6.13;75.86;101602.44;1750352;80;21011;-73
2021/10/04 05:12:17;;;;;;;16.85;10.82;;;;;;;6.24;75.91;101608.55;1723348;81;21826;-73
2021/10/04 05:14:45;;;;;;;17.87;10.78;;;;;;;6.34;75.96;101610.33;1749024;81;21177;-72
2021/10/04 05:17:11;;;;;;;16.23;11.50;;;;;;;6.45;76.02;101612.89;1740019;81;20980;-72
2021/10/04 05:19:38;;;;;;;16.90;10.45;;;;;;;6.57;76.08;101612.84;1759700;80;21000;-73
2021/10/04 05:22:04;;;;;;;13.65;10.20;;;;;;;6.70;76.06;101606.59;1730856;81;21004;-73
2021/10/04 05:24:32;;;;;;;18.10;11.30;;;;;;;6.80;75.98;101606.13;1729793;81;21602;-73
2021/10/04 05:26:59;;;;;;;14.40;10.63;;;;;;;6.88;75.89;101604.02;1730592;81;21008;-74
2021/10/04 05:29:26;;;;;;;15.05;11.40;;;;;;;6.98;75.83;101608.41;1735111;81;20995;-73
2021/10/04 05:31:53;;;;;;;13.88;10.75;;;;;;;7.05;75.75;101608.98;1729749;82;21047;-73
2021/10/04 05:34:19;;;;;;;17.62;11.05;;;;;;;7.11;75.66;101607.38;1730000;81;20952;-72
2021/10/04 05:36:46;;;;;;;13.80;11.05;;;;;;;7.15;75.53;101608.50;1729692;83;21688;-72
2021/10/04 05:39:13;;;;;;;16.15;10.80;;;;;;;7.18;75.44;101611.44;1742479;81;20992;-74
2021/10/04 05:41:40;;;;;;;14.10;10.63;;;;;;;7.18;75.34;101619.33;1728856;81;21532;-72
2021/10/04 05:44:07;;;;;;;15.72;10.43;;;;;;;7.20;75.29;101613.99;1742145;81;21051;-72
2021/10/04 05:46:35;;;;;;;12.82;10.05;;;;;;;7.23;75.24;101619.95;1729782;81;20999;-72
2021/10/04 05:49:01;;;;;;;18.87;11.05;;;;;;;7.24;75.18;101623.42;1741328;81;22801;-72
2021/10/04 05:51:28;;;;;;;14.85;10.48;;;;;;;7.23;75.18;101621.27;1708887;84;21431;-71
2021/10/04 05:53:54;;;;;;;19.02;11.50;;;;;;;7.28;75.16;101621.07;1749950;81;21035;-73
2021/10/04 05:56:21;;;;;;;15.50;10.90;;;;;;;7.31;75.12;101627.03;1738526;81;21449;-72
2021/10/04 05:58:47;;;;;;;14.33;10.78;;;;;;;7.34;75.09;101625.59;1742930;81;21370;-72
2021/10/04 06:01:13;;;;;;;12.00;10.63;;;;;;;7.38;75.07;101630.23;1725618;83;22192;-73
2021/10/04 06:03:40;;;;;;;13.75;10.70;;;;;;;7.42;75.07;101627.38;1751669;80;20955;-73
2021/10/04 06:06:10;;;;;;;13.55;10.95;;;;;;;7.49;75.11;101635.00;1698909;84;21008;-73
2021/10/04 06:08:38;;;;;;;14.63;10.72;;;;;;;7.55;75.11;101625.52;1750701;81;21104;-72
2021/10/04 06:11:04;;;;;;;13.88;10.60;;;;;;;7.62;75.12;101634.80;1702269;82;21003;-74
2021/10/04 06:13:30;;;;;;;18.12;10.08;;;;;;;7.69;75.10;101635.77;1752414;82;22219;-72
2021/10/04 06:15:57;;;;;;;17.82;11.12;;;;;;;7.75;75.04;101640.74;1746924;81;20948;-76
2021/10/04 06:18:24;;;;;;;15.55;10.53;;;;;;;7.82;75.04;101639.15;1801011;78;21043;-71
2021/10/04 06:20:51;;;;;;;12.98;10.63;;;;;;;7.86;75.00;101634.97;1818000;78;21055;-73
2021/10/04 06:23:17;;;;;;;17.27;10.63;;;;;;;7.90;74.98;101634.34;1791166;78;21003;-73
2021/10/04 06:25:45;;;;;;;16.67;11.30;;;;;;;7.95;74.99;101635.84;1806421;78;21786;-73
2021/10/04 06:28:11;;;;;;;17.75;10.82;;;;;;;7.99;74.97;101632.59;1818691;78;20987;-73
2021/10/04 06:30:38;;;;;;;15.98;10.75;;;;;;;8.02;74.93;101632.46;1804376;77;20991;-72
2021/10/04 06:33:04;;;;;;;17.50;10.53;;;;;;;8.06;74.97;101633.16;1808931;78;20987;-76
2021/10/04 06:35:31;;;;;;;15.20;10.98;;;;;;;8.10;74.92;101639.48;1799068;78;21038;-74
2021/10/04 06:37:57;;;;;;;13.83;9.90;;;;;;;8.17;74.87;101638.73;1743123;81;21833;-73
2021/10/04 06:40:24;;;;;;;16.37;10.30;;;;;;;8.24;74.90;101638.36;1807584;78;21467;-75
2021/10/04 06:42:51;;;;;;;20.32;11.30;;;;;;;8.34;74.91;101637.45;1798090;78;21043;-74
2021/10/04 06:45:17;;;;;;;18.27;10.98;;;;;;;8.47;74.91;101637.23;1796139;78;21054;-75
2021/10/04 06:47:44;;;;;;;18.27;10.25;;;;;;;8.65;74.88;101643.82;1808110;78;21015;-75
2021/10/04 06:50:11;;;;;;;13.32;9.63;;;;;;;8.83;74.64;101641.09;1801811;78;21753;-74
2021/10/04 06:52:39;;;;;;;11.78;9.30;;;;;;;9.02;74.21;101638.35;1764479;80;20936;-73
2021/10/04 06:55:07;;;;;;;13.03;9.98;;;;;;;9.20;73.53;101644.91;1799928;78;20994;-73
2021/10/04 06:57:36;;;;;;;12.75;9.85;;;;;;;9.36;73.27;101637.85;1799586;78;21101;-75
2021/10/04 07:00:07;;;;;;;14.98;9.80;;;;;;;9.52;72.90;101634.77;1799401;78;21052;-73
2021/10/04 07:02:33;;;;;;;11.48;8.90;;;;;;;9.68;72.54;101636.11;1795335;78;21905;-74
2021/10/04 07:05:00;;;;;;;13.75;8.55;;;;;;;9.82;71.70;101637.97;1810995;78;21019;-72
2021/10/04 07:07:28;;;;;;;13.45;9.03;;;;;;;9.89;70.50;101636.22;1806465;78;21480;-74
2021/10/04 07:09:56;;;;;;;13.58;9.38;;;;;;;9.95;69.81;101640.31;1798013;78;21252;-75
2021/10/04 07:12:24;;;;;;;11.28;8.28;;;;;;;10.04;69.58;101637.16;1817150;78;20988;-74
2021/10/04 07:14:52;;;;;;;11.33;9.08;;;;;;;10.17;69.22;101635.50;1819094;78;21649;-76
2021/10/04 07:17:19;;;;;;;14.50;9.23;;;;;;;10.30;68.99;101631.70;1817098;78;20998;-73
2021/10/04 07:19:46;;;;;;;15.95;8.33;;;;;;;10.47;68.58;101636.01;1806025;77;20955;-73
2021/10/04 07:22:12;;;;;;;11.10;7.80;;;;;;;10.62;68.29;101640.40;1814837;78;20994;-72
2021/10/04 07:24:39;;;;;;;10.10;8.20;;;;;;;10.76;67.73;101631.16;1778628;78;21010;-74
2021/10/04 07:27:06;;;;;;;10.08;8.35;;;;;;;10.90;66.98;101627.67;1824955;77;21855;-74
2021/10/04 07:29:32;;;;;;;12.13;8.58;;;;;;;11.05;66.37;101636.00;1801408;77;21031;-74
2021/10/04 07:32:01;;;;;;;8.00;7.00;;;;;;;11.19;65.88;101631.17;1818153;78;21054;-72
2021/10/04 07:34:30;;;;;;;9.78;7.60;;;;;;;11.30;64.72;101627.41;1809080;78;21034;-73
2021/10/04 07:36:57;;;;;;;10.45;7.70;;;;;;;11.33;63.87;101627.69;1824725;78;21042;-74
2021/10/04 07:39:23;;;;;;;15.20;8.15;;;;;;;11.34;63.21;101634.67;1811021;77;21783;-74
2021/10/04 07:41:50;;;;;;;11.48;8.28;;;;;;;11.38;63.22;101634.37;1755270;80;21035;-72
2021/10/04 07:44:20;;;;;;;13.58;7.33;;;;;;;11.50;63.46;101639.86;1732183;81;21419;-72
2021/10/04 07:46:44;;;;;;;11.25;7.92;;;;;;;11.62;62.82;101643.05;1746797;81;21047;-71
2021/10/04 07:49:11;;;;;;;10.88;8.23;;;;;;;11.64;62.08;101642.00;1730568;81;21074;-72
2021/10/04 07:51:38;;;;;;;11.33;7.12;;;;;;;11.67;62.07;101640.94;1756410;81;22689;-72
2021/10/04 07:54:04;;;;;;;11.10;8.13;;;;;;;11.70;61.59;101635.00;1749452;81;21368;-71
2021/10/04 07:56:32;;;;;;;13.75;8.30;;;;;;;11.75;61.27;101638.66;1755261;81;21020;-73
2021/10/04 07:59:00;;;;;;;12.78;8.40;;;;;;;11.82;61.51;101638.68;1753483;81;20980;-70
2021/10/04 08:01:27;;;;;;;11.93;8.85;;;;;;;11.94;61.24;101633.06;1751140;81;21489;-73
2021/10/04 08:03:54;;;;;;;14.07;8.98;;;;;;;12.06;60.97;101639.34;1745535;81;22169;-73
2021/10/04 08:06:23;;;;;;;10.45;7.47;;;;;;;12.15;60.34;101635.62;1744011;81;21023;-73
2021/10/04 08:08:50;;;;;;;12.88;7.45;;;;;;;12.24;59.88;101625.74;1752408;81;20956;-72
2021/10/04 08:11:16;;;;;;;9.78;6.53;;;;;;;12.31;59.35;101631.02;1756771;80;20980;-74
2021/10/04 08:13:45;;;;;;;12.28;7.28;;;;;;;12.43;59.28;101628.02;1740113;81;21541;-73
2021/10/04 08:16:12;;;;;;;12.78;7.90;;;;;;;12.59;58.77;101623.38;1752246;81;21744;-73
2021/10/04 08:18:39;;;;;;;11.05;7.85;;;;;;;12.73;58.25;101624.23;1733936;82;20995;-73
2021/10/04 08:21:05;;;;;;;14.00;8.33;;;;;;;12.85;58.33;101621.61;1733977;82;21073;-73
2021/10/04 08:23:32;;;;;;;12.88;7.62;;;;;;;12.88;57.82;101622.71;1744004;81;20979;-73
2021/10/04 08:25:59;;;;;;;11.65;7.72;;;;;;;12.86;57.52;101615.83;1757990;81;20955;-73
2021/10/04 08:28:25;;;;;;;14.93;7.90;;;;;;;12.88;56.82;101616.08;1745420;80;21632;-74
2021/10/04 08:30:52;;;;;;;11.80;7.87;;;;;;;12.92;56.77;101623.81;1727722;81;21031;-73
2021/10/04 08:33:18;;;;;;;12.50;7.30;;;;;;;13.00;56.78;101620.16;1740747;81;21074;-75
2021/10/04 08:35:45;;;;;;;10.88;7.40;;;;;;;13.07;56.20;101620.95;1755611;81;20987;-73
2021/10/04 08:38:12;;;;;;;12.20;7.28;;;;;;;13.07;55.55;101620.11;1741680;81;21071;-73
2021/10/04 08:40:38;;;;;;;9.98;7.58;;;;;;;13.08;55.74;101619.15;1719825;80;22865;-72
2021/10/04 08:43:12;;;;;;;11.88;6.65;;;;;;;13.16;55.99;101619.47;1707094;81;20912;-73
2021/10/04 08:45:43;;;;;;;11.35;6.30;;;;;;;13.29;56.18;101611.03;1750544;81;21023;-72
2021/10/04 08:48:09;;;;;;;7.87;5.53;;;;;;;13.51;55.24;101616.12;1748771;81;22370;-71
2021/10/04 08:50:35;;;;;;;9.33;5.37;;;;;;;13.66;53.57;101620.34;1733276;81;21359;-72
2021/10/04 08:53:02;;;;;;;7.17;5.92;;;;;;;13.82;53.14;101617.42;1745616;81;22790;-72
2021/10/04 08:55:29;;;;;;;6.72;5.60;;;;;;;13.94;52.72;101612.53;1734074;82;20990;-72
2021/10/04 08:57:55;;;;;;;10.88;4.95;;;;;;;14.06;52.69;101614.27;1741529;81;21011;-72
2021/10/04 09:00:22;;;;;;;8.30;5.28;;;;;;;14.19;52.05;101616.39;1751594;81;21474;-72
2021/10/04 09:02:48;;;;;;;7.58;5.72;;;;;;;14.35;51.75;101620.06;1765397;79;21331;-72
2021/10/04 09:05:25;;;;;;;10.10;5.10;;;;;;;14.47;51.44;101621.81;1765275;80;21858;-72
2021/10/04 09:07:55;;;;;;;7.37;5.35;;;;;;;14.59;49.53;101612.92;1765058;81;21121;-73
2021/10/04 09:10:29;;;;;;;14.47;5.50;;;;;;;14.59;49.44;101611.59;1759835;79;20999;-73
2021/10/04 09:13:01;;;;;;;7.20;5.10;;;;;;;14.64;48.96;101611.71;1736781;81;21033;-72
2021/10/04 09:15:37;;;;;;;11.00;5.17;;;;;;;14.65;48.93;101610.26;1747897;81;21031;-73
2021/10/04 09:18:17;;;;;;;7.37;5.45;;;;;;;14.67;48.12;101604.81;1742516;81;21826;-72
2021/10/04 09:21:05;;;;;;;7.90;4.78;;;;;;;14.74;49.29;101603.39;1759596;81;21039;-72
2021/10/04 09:23:45;;;;;;;5.08;4.10;;;;;;;14.93;47.89;101600.14;1729104;83;21063;-72
2021/10/04 09:26:32;;;;;;;6.50;4.08;;;;;;;15.10;47.31;101600.52;1727902;82;21089;-72
2021/10/04 09:29:09;;;;;;;6.70;4.33;;;;;;;15.26;45.20;101597.98;1728299;83;20987;-72
2021/10/04 09:31:41;;;;;;;6.47;4.58;;;;;;;15.29;45.85;101594.58;1730450;81;21837;-71
2021/10/04 09:34:18;;;;;;;10.43;3.87;;;;;;;15.39;46.42;101594.20;1729011;82;21408;-70
2021/10/04 09:36:56;;;;;;;7.47;3.00;;;;;;;15.59;45.92;101598.41;1729345;82;21051;-70
2021/10/04 09:39:27;;;;;;;7.47;3.40;;;;;;;15.79;43.39;101592.33;1729336;83;20991;-71
2021/10/04 09:42:13;;;;;;;4.53;2.80;;;;;;;15.88;43.53;101585.41;1729560;81;20984;-72
2021/10/04 09:45:00;;;;;;;5.12;3.02;;;;;;;16.05;43.40;101584.86;1729457;83;22239;-72
2021/10/04 09:47:38;;;;;;;8.05;2.47;;;;;;;16.29;42.56;101586.79;1744750;81;21004;-73
2021/10/04 09:50:11;;;;;;;6.25;2.70;;;;;;;16.49;42.04;101585.59;1735189;81;21449;-74
2021/10/04 09:52:58;;;;;;;7.92;2.67;;;;;;;16.64;41.22;101573.63;1728412;83;21093;-74
2021/10/04 09:55:37;;;;;;;4.12;2.60;;;;;;;16.82;41.34;101574.73;1736088;81;21052;-72
2021/10/04 09:58:15;;;;;;;6.20;2.12;;;;;;;16.99;39.51;101575.95;1750979;81;21794;-72
2021/10/04 10:00:57;;;;;;;5.72;2.50;;;;;;;17.06;39.59;101574.41;1739599;81;21037;-72
2021/10/04 10:03:40;;;;;;;6.30;2.62;;;;;;;17.03;39.23;101572.02;1741737;81;21071;-71
2021/10/04 10:06:07;;;;;;;8.68;3.00;;;;;;;17.03;39.02;101564.01;1757551;80;21079;-74
2021/10/04 10:08:34;;;;;;;9.53;3.08;;;;;;;17.19;39.13;101564.01;1758275;81;21538;-73
2021/10/04 10:11:04;;;;;;;6.35;3.00;;;;;;;17.31;39.55;101561.58;1758128;80;22833;-73
2021/10/04 10:13:31;;;;;;;4.47;2.80;;;;;;;17.51;38.74;101560.63;1758309;81;21015;-73
2021/10/04 10:16:15;;;;;;;3.83;2.90;;;;;;;17.63;36.61;101569.36;1751842;81;21480;-73
2021/10/04 10:19:07;;;;;;;6.42;3.00;;;;;;;17.51;36.38;101558.45;1726928;81;21012;-72
2021/10/04 10:21:36;;;;;;;4.50;3.02;;;;;;;17.27;36.84;101562.81;1740664;81;21522;-72
2021/10/04 10:24:07;;;;;;;5.37;3.00;;;;;;;17.10;37.44;101551.82;1730094;81;22456;-72
2021/10/04 10:26:58;;;;;;;7.78;2.98;;;;;;;17.03;37.66;101560.00;1729523;83;21027;-71
2021/10/04 10:29:27;;;;;;;5.42;2.70;;;;;;;17.04;37.40;101555.51;1729369;83;21035;-72
2021/10/04 10:31:59;;;;;;;6.08;2.80;;;;;;;17.13;36.92;101554.20;1729503;83;21506;-75
2021/10/04 10:34:36;;;;;;;7.30;2.90;;;;;;;17.25;36.74;101552.77;1732167;81;20956;-71
2021/10/04 10:37:16;;;;;;;9.90;2.62;;;;;;;17.36;37.05;101561.99;1750684;81;22584;-74
2021/10/04 10:39:56;;;;;;;4.05;2.70;;;;;;;17.48;35.82;101564.08;1736481;81;20980;-72
2021/10/04 10:42:35;;;;;;;6.83;2.40;;;;;;;17.47;35.31;101556.56;1735496;81;21430;-73
2021/10/04 10:45:09;;;;;;;8.98;2.62;;;;;;;17.40;35.94;101552.25;1716805;80;21482;-72
2021/10/04 10:47:43;;;;;;;4.08;2.22;;;;;;;17.44;36.53;101552.31;1716681;82;21003;-73
2021/10/04 10:50:29;;;;;;;4.12;2.62;;;;;;;17.57;35.54;101552.08;1754099;81;21817;-74
2021/10/04 10:53:01;;;;;;;5.65;2.47;;;;;;;17.77;36.00;101548.13;1753071;81;21406;-74
2021/10/04 10:55:34;;;;;;;4.80;2.67;;;;;;;17.90;35.12;101552.19;1750951;81;20960;-74
2021/10/04 10:58:16;;;;;;;4.20;2.80;;;;;;;18.05;34.75;101552.63;1715365;83;21022;-75
2021/10/04 11:00:51;;;;;;;3.33;2.37;;;;;;;18.07;34.33;101547.97;1709653;82;21745;-73
2021/10/04 11:03:20;;;;;;;8.28;2.40;;;;;;;18.01;34.40;101549.86;1736068;82;21800;-73
2021/10/04 11:06:02;;;;;;;4.33;2.62;;;;;;;17.98;34.14;101544.81;1713754;82;21078;-75
2021/10/04 11:08:46;;;;;;;5.85;2.50;;;;;;;18.02;35.10;101544.38;1715472;82;20991;-73
2021/10/04 11:11:22;;;;;;;2.87;1.95;;;;;;;18.15;35.38;101552.13;1709624;81;21683;-74
2021/10/04 11:14:06;;;;;;;5.28;2.08;;;;;;;18.33;34.49;101543.34;1753089;81;20947;-74
2021/10/04 11:16:38;;;;;;;3.30;2.10;;;;;;;18.49;33.47;101529.73;1761870;81;21831;-73
2021/10/04 11:19:05;;;;;;;3.40;2.08;;;;;;;18.55;32.86;101533.67;1764349;79;20892;-74
2021/10/04 11:21:32;;;;;;;4.72;2.08;;;;;;;18.55;31.77;101532.34;1790964;80;21011;-73
2021/10/04 11:24:06;;;;;;;5.83;2.17;;;;;;;18.43;32.33;101534.80;1759464;81;21387;-73
2021/10/04 11:26:35;;;;;;;5.90;2.20;;;;;;;18.39;32.19;101528.08;1773437;81;20990;-72
2021/10/04 11:29:05;;;;;;;4.15;1.98;;;;;;;18.38;32.19;101527.73;1770544;81;22508;-73
2021/10/04 11:31:35;;;;;;;3.08;2.00;;;;;;;18.44;32.37;101525.33;1762242;81;20999;-73